createdAt,value
2023-05-06T00:02:53.462Z,18.80
2023-05-06T00:07:55.776Z,18.60
2023-05-06T00:12:57.656Z,18.50
2023-05-06T00:18:01.169Z,18.50
2023-05-06T00:23:03.053Z,18.60
2023-05-06T00:28:04.888Z,18.60
2023-05-06T00:33:06.868Z,18.60
2023-05-06T00:38:13.809Z,18.60
2023-05-06T00:43:17.547Z,18.70
2023-05-06T00:48:19.662Z,18.70
2023-05-06T00:53:24.292Z,18.70
2023-05-06T00:58:26.179Z,18.80
2023-05-06T01:03:28.094Z,18.80
2023-05-06T01:08:37.415Z,18.70
2023-05-06T01:14:01.415Z,18.80
2023-05-06T01:19:08.868Z,18.70
2023-05-06T01:24:10.713Z,18.70
2023-05-06T01:29:12.762Z,18.70
2023-05-06T01:34:20.991Z,18.70
2023-05-06T01:39:26.830Z,18.70
2023-05-06T01:44:33.388Z,18.70
2023-05-06T01:49:36.025Z,18.70
2023-05-06T01:54:37.795Z,18.70
2023-05-06T01:59:39.642Z,18.70
2023-05-06T02:04:41.526Z,18.80
2023-05-06T02:09:43.443Z,18.80
2023-05-06T02:14:45.995Z,18.80
2023-05-06T02:19:47.852Z,18.80
2023-05-06T02:24:49.670Z,18.80
2023-05-06T02:29:51.534Z,18.80
2023-05-06T02:34:53.331Z,18.90
2023-05-06T02:39:57.391Z,18.90
2023-05-06T02:44:59.236Z,18.90
2023-05-06T02:50:01.098Z,18.80
2023-05-06T02:55:03.245Z,18.80
2023-05-06T03:00:06.510Z,18.90
2023-05-06T03:05:09.132Z,18.90
2023-05-06T03:10:11.406Z,18.80
2023-05-06T03:15:13.796Z,18.80
2023-05-06T03:20:16.240Z,18.70
2023-05-06T03:25:24.262Z,18.70
2023-05-06T03:30:26.904Z,18.70
2023-05-06T03:35:32.244Z,18.70
2023-05-06T03:40:36.029Z,18.60
2023-05-06T03:45:38.455Z,18.70
2023-05-06T03:50:41.410Z,18.70
2023-05-06T03:55:43.373Z,18.60
2023-05-06T04:00:47.070Z,18.60
2023-05-06T04:05:50.682Z,18.60
2023-05-06T04:10:56.166Z,18.50
2023-05-06T04:16:04.142Z,18.40
2023-05-06T04:21:12.233Z,18.40
2023-05-06T04:26:16.356Z,18.50
2023-05-06T04:31:19.785Z,18.40
2023-05-06T04:36:24.959Z,18.40
2023-05-06T04:41:51.839Z,18.40
2023-05-06T04:47:00.886Z,18.30
2023-05-06T04:52:04.144Z,18.30
2023-05-06T04:57:07.328Z,18.20
2023-05-06T05:02:10.767Z,18.10
2023-05-06T05:07:15.020Z,18.20
2023-05-06T05:12:17.129Z,18.10
2023-05-06T05:17:22.352Z,18.10
2023-05-06T05:22:25.996Z,18.10
2023-05-06T05:27:28.042Z,18.20
2023-05-06T05:32:32.197Z,18.20
2023-05-06T05:37:34.152Z,18.20
2023-05-06T05:42:36.381Z,18.20
2023-05-06T05:47:43.917Z,18.20
2023-05-06T05:52:46.085Z,18.30
2023-05-06T05:57:48.398Z,18.30
2023-05-06T06:02:51.455Z,18.40
2023-05-06T06:07:55.705Z,18.30
2023-05-06T06:12:59.960Z,18.40
2023-05-06T06:18:05.356Z,18.40
2023-05-06T06:23:08.270Z,18.50
2023-05-06T06:28:10.485Z,18.60
2023-05-06T06:33:13.619Z,18.60
2023-05-06T06:38:15.751Z,18.60
2023-05-06T06:43:19.806Z,18.50
2023-05-06T06:48:24.373Z,18.40
2023-05-06T06:53:26.345Z,18.40
2023-05-06T06:58:28.346Z,18.50
2023-05-06T07:03:30.410Z,18.60
2023-05-06T07:08:32.364Z,18.80
2023-05-06T07:13:34.273Z,19.00
2023-05-06T07:18:36.600Z,19.10
2023-05-06T07:23:38.532Z,19.40
2023-05-06T07:28:40.880Z,19.60
2023-05-06T07:33:42.751Z,19.80
2023-05-06T07:38:45.182Z,20.00
2023-05-06T07:43:47.158Z,20.20
2023-05-06T07:48:49.061Z,20.40
2023-05-06T07:53:51.105Z,20.60
2023-05-06T07:58:53.099Z,20.70
2023-05-06T08:03:55.459Z,20.90
2023-05-06T08:08:57.496Z,21.00
2023-05-06T08:13:59.382Z,21.10
2023-05-06T08:19:01.231Z,21.20
2023-05-06T08:24:03.215Z,21.30
2023-05-06T08:29:05.245Z,21.50
2023-05-06T08:34:07.281Z,21.70
2023-05-06T08:39:09.194Z,21.80
2023-05-06T08:44:15.872Z,21.90
2023-05-06T08:49:17.953Z,22.00
2023-05-06T08:54:22.644Z,22.00
2023-05-06T08:59:25.644Z,22.00
2023-05-06T09:04:27.836Z,22.10
2023-05-06T09:09:29.840Z,22.30
2023-05-06T09:14:31.822Z,22.50
2023-05-06T09:19:38.559Z,22.60
2023-05-06T09:24:40.548Z,22.70
2023-05-06T09:30:05.701Z,22.90
2023-05-06T09:35:09.393Z,23.10
2023-05-06T09:40:11.974Z,23.30
2023-05-06T09:45:16.944Z,23.20
2023-05-06T09:50:20.434Z,23.30
2023-05-06T09:55:27.313Z,23.40
2023-05-06T10:00:31.612Z,23.60
2023-05-06T10:05:35.384Z,23.90
2023-05-06T10:10:41.769Z,24.10
2023-05-06T10:15:48.173Z,24.30
2023-05-06T10:20:53.625Z,24.40
2023-05-06T10:26:09.838Z,24.50
2023-05-06T10:31:13.355Z,24.80
2023-05-06T10:36:27.897Z,25.00
2023-05-06T10:41:30.848Z,25.20
2023-05-06T10:46:52.838Z,25.30
2023-05-06T10:52:14.943Z,25.40
2023-05-06T10:57:17.488Z,25.70
2023-05-06T11:02:20.441Z,25.70
2023-05-06T11:07:24.073Z,25.80
2023-05-06T11:12:50.720Z,25.90
2023-05-06T11:17:57.386Z,26.10
2023-05-06T11:22:59.318Z,26.20
2023-05-06T11:28:01.473Z,26.20
2023-05-06T11:33:05.935Z,26.40
2023-05-06T11:38:07.953Z,26.40
2023-05-06T11:43:11.441Z,26.40
2023-05-06T11:48:17.548Z,26.60
2023-05-06T11:53:21.730Z,26.60
2023-05-06T11:58:30.401Z,26.40
2023-05-06T12:03:33.445Z,26.20
2023-05-06T12:08:37.077Z,26.10
2023-05-06T12:13:40.673Z,26.00
2023-05-06T12:18:43.191Z,26.10
2023-05-06T12:23:57.646Z,26.30
2023-05-06T12:29:08.176Z,26.60
2023-05-06T12:34:10.484Z,26.80
2023-05-06T12:39:13.406Z,26.90
2023-05-06T12:44:40.516Z,27.00
2023-05-06T12:49:52.215Z,27.20
2023-05-06T12:54:54.195Z,27.30
2023-05-06T12:59:56.507Z,27.40
2023-05-06T13:04:58.420Z,27.50
2023-05-06T13:10:00.409Z,27.60
2023-05-06T13:15:05.764Z,27.70
2023-05-06T13:20:08.396Z,27.80
2023-05-06T13:25:11.520Z,27.90
2023-05-06T13:30:13.704Z,27.80
2023-05-06T13:35:18.176Z,27.70
2023-05-06T13:40:20.101Z,27.40
2023-05-06T13:45:21.956Z,27.20
2023-05-06T13:50:23.839Z,26.60
2023-05-06T13:55:25.673Z,26.30
2023-05-06T14:00:27.600Z,26.50
2023-05-06T14:05:29.512Z,26.60
2023-05-06T14:10:31.329Z,26.70
2023-05-06T14:15:33.179Z,27.00
2023-05-06T14:20:35.081Z,27.30
2023-05-06T14:25:37.031Z,27.00
2023-05-06T14:30:42.855Z,26.70
2023-05-06T14:35:46.128Z,26.80
2023-05-06T14:40:48.082Z,27.00
2023-05-06T14:45:50.157Z,27.10
2023-05-06T14:50:52.082Z,27.20
2023-05-06T14:55:53.940Z,27.30
2023-05-06T15:00:55.790Z,27.50
2023-05-06T15:05:57.777Z,27.70
2023-05-06T15:11:01.140Z,27.80
2023-05-06T15:16:05.565Z,27.60
2023-05-06T15:21:07.665Z,27.70
2023-05-06T15:26:09.658Z,27.80
2023-05-06T15:31:11.678Z,27.60
2023-05-06T15:36:13.500Z,27.60
2023-05-06T15:41:15.331Z,27.60
2023-05-06T15:46:17.194Z,27.50
2023-05-06T15:51:19.076Z,27.20
2023-05-06T15:56:21.348Z,27.00
2023-05-06T16:01:42.540Z,27.10
2023-05-06T16:06:45.081Z,27.30
2023-05-06T16:11:48.115Z,27.10
2023-05-06T16:16:50.119Z,27.10
2023-05-06T16:21:53.105Z,27.10
2023-05-06T16:26:56.001Z,27.00
2023-05-06T16:31:57.900Z,26.70
2023-05-06T16:37:00.626Z,26.80
2023-05-06T16:42:02.465Z,26.80
2023-05-06T16:47:06.737Z,26.80
2023-05-06T16:52:08.629Z,26.80
2023-05-06T16:57:10.971Z,26.90
2023-05-06T17:02:12.886Z,27.00
2023-05-06T17:07:14.839Z,27.00
2023-05-06T17:12:16.696Z,27.00
2023-05-06T17:17:21.733Z,27.10
2023-05-06T17:22:26.346Z,27.10
2023-05-06T17:27:31.174Z,27.20
2023-05-06T17:32:33.126Z,27.20
2023-05-06T17:37:35.129Z,27.10
2023-05-06T17:42:37.080Z,26.90
2023-05-06T17:47:39.121Z,26.90
2023-05-06T17:52:40.996Z,26.80
2023-05-06T17:57:43.210Z,26.70
2023-05-06T18:02:45.322Z,26.70
2023-05-06T18:07:47.299Z,26.60
2023-05-06T18:12:49.690Z,26.70
2023-05-06T18:17:51.735Z,26.60
2023-05-06T18:22:53.735Z,26.60
2023-05-06T18:27:55.718Z,26.40
2023-05-06T18:32:59.893Z,26.30
2023-05-06T18:38:01.794Z,26.20
2023-05-06T18:43:03.962Z,26.00
2023-05-06T18:48:05.971Z,25.80
2023-05-06T18:53:08.081Z,25.60
2023-05-06T18:58:10.076Z,25.50
2023-05-06T19:03:12.045Z,25.40
2023-05-06T19:08:14.007Z,25.20
2023-05-06T19:13:15.947Z,25.10
2023-05-06T19:18:18.255Z,25.10
2023-05-06T19:23:20.214Z,25.00
2023-05-06T19:28:22.136Z,24.80
2023-05-06T19:33:24.153Z,24.70
2023-05-06T19:38:26.331Z,24.50
2023-05-06T19:43:28.363Z,24.40
2023-05-06T19:48:30.432Z,24.30
2023-05-06T19:53:33.843Z,24.00
2023-05-06T19:58:35.781Z,23.70
2023-05-06T20:03:39.198Z,23.50
2023-05-06T20:08:41.152Z,23.40
2023-05-06T20:13:43.076Z,23.30
2023-05-06T20:18:45.253Z,23.20
2023-05-06T20:23:47.159Z,23.20
2023-05-06T20:28:48.987Z,22.80
2023-05-06T20:33:50.882Z,22.40
2023-05-06T20:38:52.978Z,22.40
2023-05-06T20:43:57.163Z,22.40
2023-05-06T20:49:00.661Z,22.20
2023-05-06T20:54:02.519Z,22.10
2023-05-06T20:59:04.454Z,22.20
2023-05-06T21:04:06.441Z,22.10
2023-05-06T21:09:08.360Z,22.00
2023-05-06T21:14:10.550Z,22.00
2023-05-06T21:19:12.377Z,21.90
2023-05-06T21:24:14.343Z,21.80
2023-05-06T21:29:16.175Z,21.70
2023-05-06T21:34:18.123Z,21.50
2023-05-06T21:39:20.936Z,21.40
2023-05-06T21:44:22.875Z,21.40
2023-05-06T21:49:24.772Z,21.20
2023-05-06T21:54:26.680Z,21.20
2023-05-06T21:59:28.608Z,21.30
2023-05-06T22:04:30.590Z,21.30
2023-05-06T22:09:32.485Z,21.30
2023-05-06T22:14:41.292Z,21.30
2023-05-06T22:19:43.572Z,21.10
2023-05-06T22:24:48.176Z,21.00
2023-05-06T22:29:50.284Z,20.90
2023-05-06T22:34:52.144Z,20.90
2023-05-06T22:39:56.494Z,21.00
2023-05-06T22:44:58.391Z,21.00
2023-05-06T22:50:00.272Z,20.80
2023-05-06T22:55:02.635Z,20.80
2023-05-06T23:00:06.540Z,20.70
2023-05-06T23:05:09.321Z,20.70
2023-05-06T23:10:11.634Z,20.60
2023-05-06T23:15:13.592Z,20.60
2023-05-06T23:20:17.164Z,20.50
2023-05-06T23:25:19.564Z,20.50
2023-05-06T23:30:21.441Z,20.50
2023-05-06T23:35:23.328Z,20.50
2023-05-06T23:40:25.293Z,20.50
2023-05-06T23:45:27.091Z,20.40
2023-05-06T23:50:28.873Z,20.30
2023-05-06T23:55:31.391Z,20.30
